createdAt,value
2022-10-13T00:01:24.149Z,101487.09
2022-10-13T00:03:54.332Z,101484.81
2022-10-13T00:06:27.638Z,101476.63
2022-10-13T00:08:57.877Z,101468.53
2022-10-13T00:11:30.647Z,101474.63
2022-10-13T00:14:04.673Z,101475.78
2022-10-13T00:16:35.830Z,101468.03
2022-10-13T00:19:05.755Z,101463.22
2022-10-13T00:21:35.811Z,101465.44
2022-10-13T00:24:05.758Z,101461.63
2022-10-13T00:26:35.500Z,101462.44
2022-10-13T00:29:08.208Z,101465.94
2022-10-13T00:31:38.481Z,101460.72
2022-10-13T00:34:09.116Z,101450.75
2022-10-13T00:36:38.896Z,101457.75
2022-10-13T00:39:09.288Z,101460.66
2022-10-13T00:41:39.085Z,101458.38
2022-10-13T00:44:38.750Z,101454.72
2022-10-13T00:47:11.948Z,101455.00
2022-10-13T00:49:41.675Z,101455.34
2022-10-13T00:52:11.932Z,101449.75
2022-10-13T00:54:41.952Z,101449.72
2022-10-13T00:57:12.794Z,101452.97
2022-10-13T00:59:43.834Z,101454.06
2022-10-13T01:02:17.081Z,101449.84
2022-10-13T01:04:49.799Z,101446.81
2022-10-13T01:07:22.140Z,101450.06
2022-10-13T01:09:51.934Z,101447.31
2022-10-13T01:12:33.305Z,101450.78
2022-10-13T01:15:10.059Z,101450.53
2022-10-13T01:17:52.211Z,101458.44
2022-10-13T01:20:55.619Z,101443.63
2022-10-13T01:24:07.657Z,101440.53
2022-10-13T01:27:01.454Z,101437.09
2022-10-13T01:29:59.169Z,101445.38
2022-10-13T01:32:39.171Z,101441.47
2022-10-13T01:35:14.572Z,101436.56
2022-10-13T01:37:51.566Z,101434.22
2022-10-13T01:40:26.994Z,101435.50
2022-10-13T01:43:03.944Z,101432.09
2022-10-13T01:45:38.661Z,101431.13
2022-10-13T01:48:13.644Z,101419.97
2022-10-13T01:50:44.595Z,101423.84
2022-10-13T01:53:17.951Z,101419.34
2022-10-13T01:55:53.048Z,101420.88
2022-10-13T01:58:23.617Z,101413.84
2022-10-13T02:01:04.296Z,101415.91
2022-10-13T02:03:46.698Z,101407.41
2022-10-13T02:06:23.804Z,101410.50
2022-10-13T02:09:01.262Z,101407.63
2022-10-13T02:11:31.475Z,101396.03
2022-10-13T02:14:08.159Z,101408.34
2022-10-13T02:16:41.031Z,101403.75
2022-10-13T02:19:17.543Z,101387.34
2022-10-13T02:21:48.019Z,101390.81
2022-10-13T02:24:17.925Z,101395.41
2022-10-13T02:26:48.662Z,101388.34
2022-10-13T02:29:19.774Z,101395.47
2022-10-13T02:31:49.937Z,101396.44
2022-10-13T02:34:22.250Z,101393.09
2022-10-13T02:36:52.446Z,101393.94
2022-10-13T02:39:22.233Z,101390.59
2022-10-13T02:41:52.006Z,101388.19
2022-10-13T02:44:22.192Z,101379.44
2022-10-13T02:46:51.962Z,101376.25
2022-10-13T02:49:24.312Z,101369.56
2022-10-13T02:51:54.594Z,101365.72
2022-10-13T02:54:24.330Z,101365.44
2022-10-13T02:56:54.076Z,101367.50
2022-10-13T02:59:24.188Z,101375.84
2022-10-13T03:01:53.921Z,101368.03
2022-10-13T03:04:26.274Z,101371.53
2022-10-13T03:06:56.347Z,101369.03
2022-10-13T03:09:26.151Z,101357.50
2022-10-13T03:11:55.998Z,101369.03
2022-10-13T03:14:26.099Z,101354.88
2022-10-13T03:16:55.827Z,101361.38
2022-10-13T03:19:28.505Z,101353.00
2022-10-13T03:21:58.584Z,101350.88
2022-10-13T03:24:28.315Z,101352.84
2022-10-13T03:26:58.244Z,101355.81
2022-10-13T03:29:28.902Z,101352.44
2022-10-13T03:31:58.723Z,101347.41
2022-10-13T03:34:31.791Z,101345.94
2022-10-13T03:37:01.619Z,101351.94
2022-10-13T03:39:31.876Z,101347.22
2022-10-13T03:42:01.746Z,101338.13
2022-10-13T03:44:31.573Z,101348.72
2022-10-13T03:47:02.211Z,101344.56
2022-10-13T03:49:34.662Z,101334.41
2022-10-13T03:52:05.644Z,101346.91
2022-10-13T03:54:35.652Z,101335.66
2022-10-13T03:57:05.773Z,101338.31
2022-10-13T03:59:37.113Z,101341.91
2022-10-13T04:02:07.392Z,101342.19
2022-10-13T04:04:40.560Z,101338.03
2022-10-13T04:07:11.383Z,101335.56
2022-10-13T04:09:41.126Z,101335.56
2022-10-13T04:12:11.130Z,101331.47
2022-10-13T04:14:40.906Z,101325.78
2022-10-13T04:17:10.829Z,101332.97
2022-10-13T04:19:43.553Z,101331.00
2022-10-13T04:22:13.441Z,101328.91
2022-10-13T04:24:43.769Z,101324.47
2022-10-13T04:27:13.597Z,101320.00
2022-10-13T04:29:43.333Z,101321.34
2022-10-13T04:32:13.404Z,101323.19
2022-10-13T04:34:45.923Z,101319.66
2022-10-13T04:37:15.956Z,101322.78
2022-10-13T04:39:45.678Z,101321.41
2022-10-13T04:42:15.863Z,101321.59
2022-10-13T04:44:45.863Z,101316.06
2022-10-13T04:47:15.930Z,101322.63
2022-10-13T04:49:48.494Z,101325.31
2022-10-13T04:52:18.865Z,101309.66
2022-10-13T04:54:48.903Z,101311.63
2022-10-13T04:57:18.967Z,101309.78
2022-10-13T04:59:48.644Z,101305.97
2022-10-13T05:02:18.656Z,101304.13
2022-10-13T05:04:51.612Z,101308.31
2022-10-13T05:07:21.370Z,101306.38
2022-10-13T05:09:53.419Z,101304.09
2022-10-13T05:12:23.357Z,101307.16
2022-10-13T05:14:53.449Z,101305.22
2022-10-13T05:17:23.224Z,101306.75
2022-10-13T05:19:55.822Z,101299.94
2022-10-13T05:22:25.986Z,101300.22
2022-10-13T05:24:56.072Z,101291.31
2022-10-13T05:27:25.892Z,101297.28
2022-10-13T05:29:55.862Z,101294.06
2022-10-13T05:32:26.117Z,101293.06
2022-10-13T05:34:58.896Z,101296.78
2022-10-13T05:37:29.293Z,101296.16
2022-10-13T05:39:59.240Z,101292.75
2022-10-13T05:42:32.154Z,101295.50
2022-10-13T05:45:01.922Z,101288.09
2022-10-13T05:47:31.947Z,101280.03
2022-10-13T05:50:04.327Z,101282.72
2022-10-13T05:52:37.784Z,101283.28
2022-10-13T05:55:11.799Z,101296.59
2022-10-13T05:57:45.221Z,101291.44
2022-10-13T06:00:18.053Z,101291.50
2022-10-13T06:02:52.497Z,101294.09
2022-10-13T06:05:28.676Z,101293.50
2022-10-13T06:07:58.784Z,101289.00
2022-10-13T06:10:29.211Z,101297.09
2022-10-13T06:12:59.518Z,101288.44
2022-10-13T06:15:29.374Z,101288.44
2022-10-13T06:17:59.191Z,101279.66
2022-10-13T06:20:35.072Z,101291.16
2022-10-13T06:23:05.160Z,101291.78
2022-10-13T06:25:36.309Z,101288.66
2022-10-13T06:28:06.578Z,101282.72
2022-10-13T06:30:36.926Z,101287.56
2022-10-13T06:33:07.084Z,101285.25
2022-10-13T06:35:40.109Z,101285.22
2022-10-13T06:38:09.936Z,101289.81
2022-10-13T06:40:40.171Z,101294.06
2022-10-13T06:43:10.159Z,101304.47
2022-10-13T06:52:06.341Z,101292.78
2022-10-13T06:54:36.654Z,101296.91
2022-10-13T06:57:08.775Z,101293.34
2022-10-13T06:59:39.120Z,101297.16
2022-10-13T07:02:09.305Z,101298.13
2022-10-13T07:04:40.103Z,101299.72
2022-10-13T07:07:13.356Z,101295.88
2022-10-13T07:09:43.969Z,101287.19
2022-10-13T07:12:18.902Z,101281.13
2022-10-13T07:17:46.039Z,101284.94
2022-10-13T07:20:16.838Z,101279.97
2022-10-13T07:25:47.231Z,101270.78
2022-10-13T07:28:16.979Z,101277.19
2022-10-13T07:30:47.905Z,101274.00
2022-10-13T07:33:19.935Z,101275.09
2022-10-13T07:35:50.558Z,101272.31
2022-10-13T07:38:23.776Z,101263.69
2022-10-13T07:40:54.941Z,101267.41
2022-10-13T07:43:25.078Z,101266.31
2022-10-13T07:45:55.627Z,101265.63
2022-10-13T07:48:25.949Z,101262.88
2022-10-13T07:50:56.089Z,101262.81
2022-10-13T07:53:28.567Z,101258.91
2022-10-13T07:58:52.465Z,101257.03
2022-10-13T08:01:24.939Z,101253.31
2022-10-13T08:03:59.505Z,101256.56
2022-10-13T08:06:29.991Z,101250.66
2022-10-13T08:09:04.388Z,101257.38
2022-10-13T08:11:34.612Z,101250.59
2022-10-13T08:14:06.300Z,101247.88
2022-10-13T08:16:38.308Z,101256.81
2022-10-13T08:19:10.205Z,101249.88
2022-10-13T08:22:01.880Z,101237.13
2022-10-13T08:24:34.434Z,101243.88
2022-10-13T08:27:04.989Z,101250.91
2022-10-13T08:29:34.881Z,101245.69
2022-10-13T08:32:07.212Z,101244.22
2022-10-13T08:34:37.329Z,101236.63
2022-10-13T08:37:08.489Z,101236.84
2022-10-13T08:39:41.182Z,101230.84
2022-10-13T08:42:18.592Z,101229.97
2022-10-13T08:45:28.354Z,101229.19
2022-10-13T08:47:48.708Z,101226.25
2022-10-13T08:50:21.891Z,101229.81
2022-10-13T08:52:55.476Z,101228.66
2022-10-13T08:55:36.101Z,101232.03
2022-10-13T08:58:15.824Z,101231.84
2022-10-13T09:00:45.905Z,101229.22
2022-10-13T09:03:26.005Z,101229.25
2022-10-13T09:06:12.066Z,101231.06
2022-10-13T09:08:46.812Z,101225.41
2022-10-13T09:11:19.964Z,101224.56
2022-10-13T09:13:50.580Z,101215.81
2022-10-13T09:16:29.676Z,101204.97
2022-10-13T09:19:25.611Z,101199.03
2022-10-13T09:21:57.614Z,101207.63
2022-10-13T09:24:29.627Z,101203.91
2022-10-13T09:27:21.451Z,101211.56
2022-10-13T09:29:58.699Z,101207.19
2022-10-13T09:32:28.612Z,101196.88
2022-10-13T09:35:23.052Z,101201.72
2022-10-13T09:38:05.515Z,101205.88
2022-10-13T09:40:36.188Z,101199.72
2022-10-13T09:43:20.159Z,101190.06
2022-10-13T09:45:51.006Z,101198.03
2022-10-13T09:48:29.154Z,101199.13
2022-10-13T09:51:03.208Z,101203.44
2022-10-13T09:53:36.813Z,101205.53
2022-10-13T09:56:12.913Z,101204.19
2022-10-13T09:58:52.475Z,101209.31
2022-10-13T10:01:29.471Z,101202.75
2022-10-13T10:04:00.488Z,101211.41
2022-10-13T10:06:31.015Z,101222.25
2022-10-13T10:09:08.971Z,101210.28
2022-10-13T10:14:55.527Z,101209.75
2022-10-13T10:17:43.897Z,101212.56
2022-10-13T10:20:43.783Z,101213.66
2022-10-13T10:26:24.266Z,101201.19
2022-10-13T10:29:26.328Z,101191.13
2022-10-13T10:32:14.647Z,101198.56
2022-10-13T10:34:53.236Z,101195.56
2022-10-13T10:37:37.964Z,101194.44
2022-10-13T10:40:20.394Z,101192.88
2022-10-13T10:43:20.090Z,101181.53
2022-10-13T10:45:51.397Z,101179.66
2022-10-13T10:48:27.268Z,101181.00
2022-10-13T10:50:58.148Z,101166.91
2022-10-13T11:00:25.003Z,101157.16
2022-10-13T11:10:26.505Z,101142.31
2022-10-13T11:13:23.422Z,101137.31
2022-10-13T11:15:53.861Z,101132.22
2022-10-13T11:18:53.953Z,101139.47
2022-10-13T11:21:24.481Z,101126.84
2022-10-13T11:23:58.462Z,101129.81
2022-10-13T11:26:46.696Z,101131.09
2022-10-13T11:29:22.979Z,101135.25
2022-10-13T11:32:11.285Z,101136.00
2022-10-13T11:35:01.175Z,101125.53
2022-10-13T11:37:55.801Z,101117.09
2022-10-13T11:40:37.060Z,101126.53
2022-10-13T11:43:26.847Z,101115.31
2022-10-13T11:46:08.723Z,101115.47
2022-10-13T11:49:03.098Z,101119.03
2022-10-13T11:51:41.269Z,101121.84
2022-10-13T11:54:22.247Z,101106.69
2022-10-13T11:56:54.187Z,101113.88
2022-10-13T11:59:31.685Z,101097.16
2022-10-13T12:02:08.388Z,101092.69
2022-10-13T12:04:41.542Z,101086.28
2022-10-13T12:07:16.965Z,101084.78
2022-10-13T12:09:53.050Z,101080.97
2022-10-13T12:12:30.742Z,101071.75
2022-10-13T12:15:33.157Z,101079.16
2022-10-13T12:18:17.545Z,101078.44
2022-10-13T12:20:59.399Z,101076.56
2022-10-13T12:23:30.223Z,101065.53
2022-10-13T12:26:02.153Z,101064.66
2022-10-13T12:32:03.274Z,101081.91
2022-10-13T12:34:36.721Z,101081.16
2022-10-13T12:37:17.734Z,101081.44
2022-10-13T12:39:55.510Z,101083.06
2022-10-13T12:42:33.996Z,101071.69
2022-10-13T12:47:57.497Z,101080.53
2022-10-13T12:50:49.341Z,101072.88
2022-10-13T12:53:31.313Z,101084.63
2022-10-13T12:56:03.678Z,101085.25
2022-10-13T12:58:36.313Z,101077.38
2022-10-13T13:01:11.050Z,101079.34
2022-10-13T13:03:46.846Z,101079.34
2022-10-13T13:06:33.449Z,101084.06
2022-10-13T13:09:39.907Z,101069.44
2022-10-13T13:12:29.420Z,101075.78
2022-10-13T13:15:00.684Z,101076.56
2022-10-13T13:23:23.560Z,101075.66
2022-10-13T13:26:04.391Z,101078.63
2022-10-13T13:28:37.357Z,101072.34
2022-10-13T13:31:08.181Z,101070.25
2022-10-13T13:33:41.935Z,101074.84
2022-10-13T13:36:30.434Z,101075.09
2022-10-13T13:39:11.428Z,101062.81
2022-10-13T13:41:55.895Z,101070.63
2022-10-13T13:44:42.174Z,101055.91
2022-10-13T13:47:20.632Z,101051.97
2022-10-13T13:49:53.686Z,101051.44
2022-10-13T13:52:29.609Z,101057.81
2022-10-13T13:58:18.793Z,101047.75
2022-10-13T14:00:56.975Z,101043.91
2022-10-13T14:09:46.836Z,101044.94
2022-10-13T14:12:17.989Z,101033.97
2022-10-13T14:14:48.340Z,101026.81
2022-10-13T14:17:30.383Z,101014.31
2022-10-13T14:20:06.631Z,101027.84
2022-10-13T14:22:40.602Z,101011.63
2022-10-13T14:25:14.188Z,101007.94
2022-10-13T14:27:46.320Z,101016.50
2022-10-13T14:30:17.544Z,101013.78
2022-10-13T14:32:48.253Z,101018.69
2022-10-13T14:35:18.575Z,101018.97
2022-10-13T14:37:50.041Z,101025.28
2022-10-13T14:40:23.430Z,101024.16
2022-10-13T14:42:54.483Z,101028.16
2022-10-13T14:45:26.336Z,101020.56
2022-10-13T14:47:58.803Z,101022.59
2022-10-13T14:50:30.485Z,101024.47
2022-10-13T14:53:01.198Z,101022.28
2022-10-13T14:58:46.771Z,101008.53
2022-10-13T15:01:18.261Z,101009.25
2022-10-13T15:03:49.298Z,101010.97
2022-10-13T15:06:21.303Z,101006.06
2022-10-13T15:08:52.325Z,101001.75
2022-10-13T15:11:24.007Z,101009.16
2022-10-13T15:13:58.024Z,101001.28
2022-10-13T15:16:38.104Z,101005.44
2022-10-13T15:19:10.430Z,100999.06
2022-10-13T15:21:41.374Z,101008.16
2022-10-13T15:24:17.072Z,101002.94
2022-10-13T15:26:47.494Z,101002.28
2022-10-13T15:29:22.605Z,101011.84
2022-10-13T15:31:52.879Z,101005.78
2022-10-13T15:34:24.732Z,101002.53
2022-10-13T15:36:54.786Z,101012.78
2022-10-13T15:39:25.402Z,101006.00
2022-10-13T15:42:03.122Z,101006.22
2022-10-13T15:45:08.288Z,100995.97
2022-10-13T15:47:32.785Z,101001.97
2022-10-13T15:50:06.739Z,100996.59
2022-10-13T15:59:28.358Z,101004.34
2022-10-13T16:02:07.755Z,101002.22
2022-10-13T16:05:19.077Z,101000.97
2022-10-13T16:25:51.584Z,100998.34
2022-10-13T16:28:29.205Z,101008.69
2022-10-13T16:30:59.963Z,100999.88
2022-10-13T16:36:52.454Z,100999.81
2022-10-13T16:39:42.279Z,100992.50
2022-10-13T16:42:17.364Z,100988.66
2022-10-13T16:44:48.524Z,100996.28
2022-10-13T16:48:21.325Z,100994.19
2022-10-13T16:50:45.975Z,100993.75
2022-10-13T16:53:19.516Z,100993.50
2022-10-13T16:55:51.147Z,100995.75
2022-10-13T16:58:24.122Z,101000.69
2022-10-13T17:01:21.405Z,100998.16
2022-10-13T17:03:52.603Z,100997.44
2022-10-13T17:06:25.727Z,100992.31
2022-10-13T17:09:00.314Z,100991.47
2022-10-13T17:11:33.441Z,100993.13
2022-10-13T17:14:11.053Z,100999.94
2022-10-13T17:16:54.198Z,100998.16
2022-10-13T17:20:15.668Z,100997.16
2022-10-13T17:22:46.283Z,101000.72
2022-10-13T17:25:24.344Z,100995.81
2022-10-13T17:30:41.388Z,101000.84
2022-10-13T17:33:12.902Z,100990.53
2022-10-13T17:35:49.904Z,100988.06
2022-10-13T17:38:26.018Z,100989.22
2022-10-13T17:40:59.782Z,100987.91
2022-10-13T17:43:31.281Z,100990.03
2022-10-13T17:46:35.060Z,100989.25
2022-10-13T17:49:06.010Z,100994.69
2022-10-13T17:51:36.254Z,101000.22
2022-10-13T17:54:11.446Z,100995.22
2022-10-13T17:56:42.871Z,100991.81
2022-10-13T17:59:13.008Z,100992.63
2022-10-13T18:01:46.747Z,100990.03
2022-10-13T18:04:20.210Z,100985.19
2022-10-13T18:07:27.429Z,100992.81
2022-10-13T18:11:07.523Z,100997.19
2022-10-13T18:13:22.705Z,100980.31
2022-10-13T18:15:55.006Z,100981.97
2022-10-13T18:18:35.116Z,100983.16
2022-10-13T18:24:44.909Z,100988.75
2022-10-13T18:27:42.067Z,100978.84
2022-10-13T18:30:23.747Z,100981.06
2022-10-13T18:33:01.964Z,100977.16
2022-10-13T18:36:17.911Z,100974.47
2022-10-13T18:39:38.501Z,100972.50
2022-10-13T18:41:45.226Z,100970.78
2022-10-13T18:44:33.175Z,100972.88
2022-10-13T18:47:37.982Z,100971.59
2022-10-13T18:50:13.776Z,100968.16
2022-10-13T18:52:45.334Z,100975.47
2022-10-13T18:55:18.627Z,100974.84
2022-10-13T18:57:48.601Z,100970.34
2022-10-13T19:00:22.127Z,100966.72
2022-10-13T19:02:53.429Z,100970.19
2022-10-13T19:05:23.621Z,100967.34
2022-10-13T19:07:53.634Z,100966.28
2022-10-13T19:10:26.672Z,100966.84
2022-10-13T19:12:58.909Z,100964.94
2022-10-13T19:15:30.313Z,100966.41
2022-10-13T19:19:02.495Z,100966.78
2022-10-13T19:21:46.667Z,100965.25
2022-10-13T19:24:16.565Z,100960.84
2022-10-13T19:26:49.359Z,100954.88
2022-10-13T19:29:19.187Z,100954.69
2022-10-13T19:31:49.753Z,100949.91
2022-10-13T19:34:20.146Z,100953.75
2022-10-13T19:36:50.602Z,100956.22
2022-10-13T19:39:22.885Z,100953.09
2022-10-13T19:41:57.781Z,100953.25
2022-10-13T19:44:29.277Z,100954.53
2022-10-13T19:47:01.555Z,100952.75
2022-10-13T19:49:31.638Z,100947.25
2022-10-13T19:52:01.876Z,100948.16
2022-10-13T19:54:34.905Z,100949.34
2022-10-13T19:57:07.719Z,100950.38
2022-10-13T19:59:37.562Z,100949.66
2022-10-13T20:02:07.843Z,100950.56
2022-10-13T20:04:37.940Z,100956.53
2022-10-13T20:07:08.031Z,100958.44
2022-10-13T20:09:37.804Z,100961.38
2022-10-13T20:12:10.697Z,100955.31
2022-10-13T20:14:40.817Z,100963.22
2022-10-13T20:17:10.714Z,100959.84
2022-10-13T20:19:41.103Z,100962.28
2022-10-13T20:22:10.869Z,100956.47
2022-10-13T20:24:40.699Z,100955.66
2022-10-13T20:27:13.320Z,100956.88
2022-10-13T20:29:43.096Z,100956.22
2022-10-13T20:32:15.157Z,100954.47
2022-10-13T20:34:44.954Z,100953.59
2022-10-13T20:37:15.494Z,100949.69
2022-10-13T20:39:45.693Z,100948.13
2022-10-13T20:42:18.071Z,100949.59
2022-10-13T20:44:48.213Z,100948.38
2022-10-13T20:47:18.216Z,100947.53
2022-10-13T20:49:48.361Z,100946.53
2022-10-13T20:52:18.553Z,100948.22
2022-10-13T20:54:48.346Z,100940.97
2022-10-13T20:57:21.430Z,100945.91
2022-10-13T20:59:51.873Z,100945.28
2022-10-13T21:02:21.770Z,100941.91
2022-10-13T21:04:52.010Z,100946.84
2022-10-13T21:07:22.029Z,100948.66
2022-10-13T21:09:53.912Z,100949.06
2022-10-13T21:12:26.681Z,100956.16
2022-10-13T21:14:56.898Z,100945.03
2022-10-13T21:17:26.873Z,100957.34
2022-10-13T21:19:58.345Z,100958.28
2022-10-13T21:22:28.432Z,100956.16
2022-10-13T21:24:58.550Z,100952.81
2022-10-13T21:27:30.927Z,100959.25
2022-10-13T21:30:01.097Z,100945.72
2022-10-13T21:32:32.469Z,100944.84
2022-10-13T21:35:02.526Z,100946.13
2022-10-13T21:37:36.189Z,100944.25
2022-10-13T21:40:07.006Z,100947.72
2022-10-13T21:42:41.857Z,100947.72
2022-10-13T21:45:13.140Z,100947.97
2022-10-13T21:47:43.241Z,100946.56
2022-10-13T21:50:13.460Z,100943.00
2022-10-13T21:52:43.227Z,100950.31
2022-10-13T21:55:14.219Z,100948.78
2022-10-13T21:57:46.712Z,100952.75
2022-10-13T22:00:17.364Z,100952.16
2022-10-13T22:02:47.249Z,100951.97
2022-10-13T22:05:17.682Z,100960.22
2022-10-13T22:07:47.451Z,100956.06
2022-10-13T22:10:17.263Z,100959.63
2022-10-13T22:12:49.933Z,100956.41
2022-10-13T22:15:19.940Z,100952.00
2022-10-13T22:17:50.386Z,100956.78
2022-10-13T22:20:20.597Z,100957.88
2022-10-13T22:22:50.471Z,100953.00
2022-10-13T22:25:20.966Z,100957.06
2022-10-13T22:27:53.515Z,100953.97
2022-10-13T22:30:23.947Z,100955.78
2022-10-13T22:32:53.863Z,100952.63
2022-10-13T22:35:24.129Z,100956.06
2022-10-13T22:37:53.935Z,100950.31
2022-10-13T22:40:24.022Z,100943.41
2022-10-13T22:42:57.362Z,100944.69
2022-10-13T22:45:27.636Z,100947.81
2022-10-13T22:47:58.188Z,100944.13
2022-10-13T22:50:28.299Z,100942.44
2022-10-13T22:52:58.532Z,100936.13
2022-10-13T22:55:29.023Z,100933.22
2022-10-13T22:58:01.885Z,100934.63
2022-10-13T23:00:32.330Z,100941.03
2022-10-13T23:03:02.156Z,100935.03
2022-10-13T23:05:32.160Z,100933.03
2022-10-13T23:08:02.397Z,100933.94
2022-10-13T23:10:32.243Z,100936.41
2022-10-13T23:13:05.010Z,100930.94
2022-10-13T23:15:35.697Z,100928.13
2022-10-13T23:18:05.816Z,100926.78
2022-10-13T23:20:36.021Z,100927.56
2022-10-13T23:23:06.092Z,100928.25
2022-10-13T23:25:36.855Z,100918.28
2022-10-13T23:28:09.691Z,100924.75
2022-10-13T23:30:39.922Z,100927.63
2022-10-13T23:33:10.108Z,100931.78
2022-10-13T23:35:39.897Z,100931.09
2022-10-13T23:38:10.212Z,100933.69
2022-10-13T23:40:40.696Z,100920.38
2022-10-13T23:43:13.604Z,100914.56
2022-10-13T23:45:44.667Z,100912.44
2022-10-13T23:51:33.666Z,100913.09
2022-10-13T23:54:03.419Z,100912.44
2022-10-13T23:56:33.489Z,100921.22
2022-10-13T23:59:05.840Z,100917.06
